KRKP/RKP METAR and TAF weather

Enter ICAO airport designator
Station Type Date Time Source
KRKP METAR 2020/01/28 20:53 UTC NOAA

KRKP 282053Z AUTO 30005KT 9SM CLR 25/16 A2983 RMK AO2 SLP102 T02500161 56024


Station Type Date Time Source
KRKP Decoded METAR 2020/01/28 20:53 UTC NOAA

ROCKPORT ARANSAS COUNTY AIRPORT , TX, United States (KRKP) 28-05N 97-03W 6M
Jan 28, 2020 - 03:53 PM EST / 2020.01.28 2053 UTC
Wind: from the WNW (300 degrees) at 6 MPH (5 KT):0
Visibility: 9 mile(s):0
Sky conditions: clear
Temperature: 77.0 F (25.0 C)
Dew Point: 61.0 F (16.1 C)
Relative Humidity: 57%
Pressure (altimeter): 29.83 in. Hg (1010 hPa)
Pressure tendency: 0.07 inches (2.4 hPa) lower than three hours ago
ob: KRKP 282053Z AUTO 30005KT 9SM CLR 25/16 A2983 RMK AO2 SLP102 T02500161 56024
cycle: 21

Station Type Date Time Source
KRKP TAF UTC NOAA

Error!

Example: see airport list